createdAt,value
2023-04-23T00:01:19.278Z,56.99
2023-04-23T00:03:50.263Z,57.73
2023-04-23T00:06:18.976Z,58.25
2023-04-23T00:08:49.992Z,59.89
2023-04-23T00:11:19.208Z,60.69
2023-04-23T00:13:49.635Z,59.88
2023-04-23T00:16:20.032Z,59.93
2023-04-23T00:18:48.481Z,60.16
2023-04-23T00:21:16.699Z,58.68
2023-04-23T00:23:45.077Z,58.92
2023-04-23T00:26:14.548Z,58.98
2023-04-23T00:28:42.875Z,59.91
2023-04-23T00:31:11.002Z,59.30
2023-04-23T00:33:39.726Z,59.77
2023-04-23T00:36:08.921Z,59.63
2023-04-23T00:38:37.804Z,60.48
2023-04-23T00:41:06.289Z,60.67
2023-04-23T00:43:39.067Z,60.87
2023-04-23T00:46:07.632Z,60.98
2023-04-23T00:48:36.020Z,61.38
2023-04-23T00:51:06.189Z,61.56
2023-04-23T00:53:35.159Z,62.02
2023-04-23T00:56:05.355Z,61.59
2023-04-23T00:58:34.374Z,62.41
2023-04-23T01:01:05.410Z,62.25
2023-04-23T01:03:36.693Z,61.27
2023-04-23T01:06:05.850Z,61.37
2023-04-23T01:08:36.285Z,61.23
2023-04-23T01:11:06.085Z,61.54
2023-04-23T01:13:35.684Z,61.34
2023-04-23T01:16:05.442Z,61.44
2023-04-23T01:18:34.290Z,61.18
2023-04-23T01:21:02.842Z,60.89
2023-04-23T01:23:32.517Z,60.73
2023-04-23T01:26:00.677Z,61.34
2023-04-23T01:28:29.514Z,61.99
2023-04-23T01:30:58.261Z,63.23
2023-04-23T01:33:27.202Z,62.18
2023-04-23T01:35:56.623Z,61.41
2023-04-23T01:38:26.550Z,61.62
2023-04-23T01:40:56.137Z,62.29
2023-04-23T01:43:24.393Z,61.96
2023-04-23T01:45:52.852Z,61.43
2023-04-23T01:48:21.604Z,61.77
2023-04-23T01:50:50.973Z,63.06
2023-04-23T01:53:19.550Z,61.62
2023-04-23T01:55:49.029Z,61.49
2023-04-23T01:58:19.490Z,61.82
2023-04-23T02:00:47.854Z,61.53
2023-04-23T02:03:16.874Z,61.56
2023-04-23T02:05:45.821Z,62.00
2023-04-23T02:08:13.891Z,61.82
2023-04-23T02:10:41.994Z,61.54
2023-04-23T02:13:10.132Z,62.10
2023-04-23T02:15:40.778Z,61.16
2023-04-23T02:18:09.109Z,61.71
2023-04-23T02:20:40.897Z,61.82
2023-04-23T02:23:09.741Z,62.49
2023-04-23T02:25:39.423Z,62.11
2023-04-23T02:28:08.498Z,62.61
2023-04-23T02:30:37.275Z,63.74
2023-04-23T02:33:06.843Z,62.64
2023-04-23T02:35:35.064Z,62.58
2023-04-23T02:38:03.656Z,66.73
2023-04-23T02:40:32.458Z,65.51
2023-04-23T02:43:00.699Z,65.51
2023-04-23T02:45:28.791Z,65.58
2023-04-23T02:47:57.010Z,64.21
2023-04-23T02:50:26.680Z,67.05
2023-04-23T02:52:54.924Z,65.63
2023-04-23T02:55:25.302Z,66.33
2023-04-23T02:57:53.381Z,64.93
2023-04-23T03:00:22.010Z,65.85
2023-04-23T03:02:50.896Z,68.01
2023-04-23T03:05:19.356Z,66.52
2023-04-23T03:07:49.020Z,66.20
2023-04-23T03:10:17.063Z,68.83
2023-04-23T03:12:45.597Z,69.48
2023-04-23T03:15:14.378Z,66.77
2023-04-23T03:17:42.616Z,67.17
2023-04-23T03:20:12.570Z,65.48
2023-04-23T03:22:41.820Z,66.00
2023-04-23T03:25:11.606Z,65.81
2023-04-23T03:27:40.672Z,64.01
2023-04-23T03:30:10.632Z,63.60
2023-04-23T03:32:40.244Z,63.56
2023-04-23T03:35:09.699Z,64.40
2023-04-23T03:37:40.836Z,63.63
2023-04-23T03:40:11.498Z,63.62
2023-04-23T03:42:41.926Z,63.52
2023-04-23T03:45:38.456Z,62.86
2023-04-23T03:48:07.685Z,62.84
2023-04-23T03:50:38.956Z,62.94
2023-04-23T03:53:23.987Z,64.69
2023-04-23T03:56:31.634Z,64.45
2023-04-23T03:59:11.712Z,64.91
2023-04-23T04:01:40.144Z,65.08
2023-04-23T04:04:08.763Z,64.60
2023-04-23T04:06:37.438Z,64.72
2023-04-23T04:09:08.045Z,65.08
2023-04-23T04:11:37.775Z,65.27
2023-04-23T04:14:06.541Z,66.48
2023-04-23T04:16:35.049Z,65.21
2023-04-23T04:19:04.300Z,66.25
2023-04-23T04:21:33.883Z,65.41
2023-04-23T04:24:02.871Z,64.63
2023-04-23T04:26:32.448Z,63.17
2023-04-23T04:29:02.082Z,63.95
2023-04-23T04:31:31.148Z,65.08
2023-04-23T04:33:59.682Z,64.97
2023-04-23T04:36:29.001Z,64.21
2023-04-23T04:38:58.724Z,64.49
2023-04-23T04:41:27.768Z,65.31
2023-04-23T04:43:56.281Z,62.53
2023-04-23T04:46:29.433Z,63.21
2023-04-23T04:48:57.762Z,63.19
2023-04-23T04:51:31.780Z,63.72
2023-04-23T04:54:07.815Z,62.63
2023-04-23T04:56:39.732Z,62.37
2023-04-23T04:59:14.897Z,62.31
2023-04-23T05:01:49.155Z,61.72
2023-04-23T05:04:23.174Z,62.13
2023-04-23T05:06:54.264Z,63.02
2023-04-23T05:09:25.215Z,63.62
2023-04-23T05:11:54.947Z,64.62
2023-04-23T05:14:28.681Z,63.83
2023-04-23T05:17:00.060Z,63.52
2023-04-23T05:19:32.861Z,68.01
2023-04-23T05:22:04.681Z,69.12
2023-04-23T05:24:34.577Z,72.68
2023-04-23T05:27:03.917Z,72.78
2023-04-23T05:29:33.738Z,72.48
2023-04-23T05:32:08.091Z,71.24
2023-04-23T05:34:42.987Z,73.31
2023-04-23T05:37:20.605Z,74.91
2023-04-23T05:39:52.171Z,75.55
2023-04-23T05:42:22.014Z,70.65
2023-04-23T05:44:53.409Z,69.05
2023-04-23T05:47:24.610Z,71.48
2023-04-23T05:49:57.999Z,68.47
2023-04-23T05:52:31.702Z,67.01
2023-04-23T05:55:02.302Z,66.51
2023-04-23T05:57:33.514Z,66.31
2023-04-23T06:00:12.347Z,65.06
2023-04-23T06:02:53.145Z,63.00
2023-04-23T06:05:23.550Z,63.19
2023-04-23T06:08:00.898Z,61.70
2023-04-23T06:10:33.890Z,62.05
2023-04-23T06:13:07.230Z,62.48
2023-04-23T06:15:39.695Z,61.88
2023-04-23T06:18:19.274Z,59.67
2023-04-23T06:20:53.542Z,62.13
2023-04-23T06:23:28.786Z,60.39
2023-04-23T06:26:12.327Z,61.86
2023-04-23T06:28:48.382Z,62.29
2023-04-23T06:31:48.277Z,61.27
2023-04-23T06:34:26.798Z,59.41
2023-04-23T06:37:00.452Z,61.63
2023-04-23T06:39:33.270Z,59.25
2023-04-23T06:42:04.066Z,59.07
2023-04-23T06:44:52.240Z,60.36
2023-04-23T06:47:22.855Z,59.09
2023-04-23T06:49:56.065Z,58.54
2023-04-23T06:52:30.503Z,58.52
2023-04-23T06:55:02.264Z,58.95
2023-04-23T06:57:44.672Z,58.24
2023-04-23T07:00:17.402Z,55.34
2023-04-23T07:02:57.102Z,54.06
2023-04-23T07:05:32.190Z,51.93
2023-04-23T07:08:05.221Z,50.60
2023-04-23T07:10:39.008Z,49.01
2023-04-23T07:13:15.090Z,48.84
2023-04-23T07:15:46.830Z,49.62
2023-04-23T07:18:21.786Z,52.82
2023-04-23T07:20:56.507Z,54.47
2023-04-23T07:23:26.990Z,54.89
2023-04-23T07:25:59.802Z,54.97
2023-04-23T07:28:41.610Z,54.56
2023-04-23T07:31:18.284Z,53.24
2023-04-23T07:33:52.719Z,52.89
2023-04-23T07:36:30.196Z,52.93
2023-04-23T07:38:59.009Z,54.29
2023-04-23T07:41:27.195Z,53.05
2023-04-23T07:43:56.808Z,53.42
2023-04-23T07:46:25.022Z,51.76
2023-04-23T07:48:53.873Z,48.39
2023-04-23T07:51:26.593Z,50.85
2023-04-23T07:53:56.633Z,54.45
2023-04-23T07:56:25.593Z,54.69
2023-04-23T07:58:56.823Z,56.53
2023-04-23T08:01:25.831Z,56.77
2023-04-23T08:03:59.053Z,57.74
2023-04-23T08:06:30.186Z,57.98
2023-04-23T08:09:00.390Z,59.80
2023-04-23T08:11:29.693Z,59.73
2023-04-23T08:13:58.012Z,60.52
2023-04-23T08:16:26.845Z,58.90
2023-04-23T08:19:04.764Z,60.64
2023-04-23T08:21:33.779Z,60.28
2023-04-23T08:24:04.362Z,60.22
2023-04-23T08:26:32.706Z,61.59
2023-04-23T08:29:01.762Z,59.69
2023-04-23T08:31:30.527Z,59.41
2023-04-23T08:33:59.367Z,60.04
2023-04-23T08:36:27.774Z,61.06
2023-04-23T08:38:56.195Z,60.57
2023-04-23T08:41:31.587Z,61.68
2023-04-23T08:44:08.760Z,60.11
2023-04-23T08:46:38.968Z,60.91
2023-04-23T08:49:14.733Z,58.50
2023-04-23T08:51:47.502Z,56.55
2023-04-23T08:54:19.863Z,56.73
2023-04-23T08:56:52.328Z,54.69
2023-04-23T08:59:23.098Z,56.73
2023-04-23T09:01:52.270Z,53.04
2023-04-23T09:04:20.792Z,49.64
2023-04-23T09:06:48.997Z,50.71
2023-04-23T09:09:18.125Z,47.16
2023-04-23T09:11:46.614Z,48.86
2023-04-23T09:14:16.147Z,49.89
2023-04-23T09:16:44.733Z,50.90
2023-04-23T09:19:13.142Z,49.03
2023-04-23T09:21:42.054Z,48.87
2023-04-23T09:24:12.539Z,49.81
2023-04-23T09:26:46.869Z,50.99
2023-04-23T09:29:19.039Z,52.73
2023-04-23T09:31:49.492Z,52.33
2023-04-23T09:34:19.275Z,50.73
2023-04-23T09:36:50.722Z,52.01
2023-04-23T09:39:19.991Z,51.54
2023-04-23T09:41:48.195Z,51.46
2023-04-23T09:44:22.609Z,52.76
2023-04-23T09:46:51.056Z,52.49
2023-04-23T09:49:19.631Z,52.93
2023-04-23T09:51:49.179Z,52.83
2023-04-23T09:54:19.034Z,51.58
2023-04-23T09:56:52.719Z,51.76
2023-04-23T09:59:46.896Z,52.65
2023-04-23T10:02:12.920Z,50.66
2023-04-23T10:04:42.130Z,49.68
2023-04-23T10:07:19.762Z,51.56
2023-04-23T10:09:49.311Z,50.80
2023-04-23T10:12:36.599Z,50.23
2023-04-23T10:15:11.394Z,51.51
2023-04-23T10:17:40.475Z,51.22
2023-04-23T10:20:12.287Z,49.61
2023-04-23T10:22:45.432Z,53.22
2023-04-23T10:25:14.419Z,50.14
2023-04-23T10:27:53.831Z,47.08
2023-04-23T10:30:24.203Z,53.52
2023-04-23T10:32:52.864Z,55.18
2023-04-23T10:35:21.356Z,55.82
2023-04-23T10:37:51.200Z,56.38
2023-04-23T10:40:24.869Z,59.20
2023-04-23T10:42:53.780Z,57.43
2023-04-23T10:45:25.629Z,57.84
2023-04-23T10:47:56.083Z,57.74
2023-04-23T10:50:26.837Z,54.74
2023-04-23T10:52:57.646Z,60.80
2023-04-23T10:55:28.011Z,63.26
2023-04-23T10:58:01.903Z,63.00
2023-04-23T11:00:45.992Z,64.46
2023-04-23T11:03:42.653Z,63.58
2023-04-23T11:06:16.420Z,62.80
2023-04-23T11:08:55.276Z,62.70
2023-04-23T11:11:40.768Z,61.94
2023-04-23T11:14:14.416Z,61.77
2023-04-23T11:16:44.315Z,62.11
2023-04-23T11:19:13.500Z,60.47
2023-04-23T11:22:01.764Z,61.76
2023-04-23T11:24:32.799Z,64.07
2023-04-23T11:27:02.982Z,61.42
2023-04-23T11:29:31.117Z,61.55
2023-04-23T11:32:03.470Z,62.47
2023-04-23T11:34:33.369Z,64.00
2023-04-23T11:37:03.613Z,63.68
2023-04-23T11:39:32.090Z,62.84
2023-04-23T11:42:03.004Z,63.22
2023-04-23T11:44:31.787Z,62.58
2023-04-23T11:47:27.340Z,64.91
2023-04-23T11:49:55.718Z,62.89
2023-04-23T11:52:24.015Z,61.86
2023-04-23T11:54:52.240Z,64.68
2023-04-23T11:57:20.678Z,63.27
2023-04-23T11:59:48.789Z,63.23
2023-04-23T12:02:17.208Z,63.19
2023-04-23T12:04:46.860Z,63.04
2023-04-23T12:07:25.738Z,65.04
2023-04-23T12:09:59.565Z,63.22
2023-04-23T12:12:34.354Z,64.36
2023-04-23T12:15:07.344Z,64.84
2023-04-23T12:17:41.889Z,65.16
2023-04-23T12:20:19.338Z,63.81
2023-04-23T12:22:47.821Z,63.12
2023-04-23T12:25:17.184Z,63.56
2023-04-23T12:27:47.296Z,63.47
2023-04-23T12:30:15.657Z,64.53
2023-04-23T12:32:45.013Z,63.27
2023-04-23T12:35:14.505Z,64.76
2023-04-23T12:37:42.862Z,65.18
2023-04-23T12:40:11.940Z,66.12
2023-04-23T12:42:40.478Z,64.39
2023-04-23T12:45:11.291Z,65.64
2023-04-23T12:47:39.559Z,65.04
2023-04-23T12:50:08.944Z,64.63
2023-04-23T12:52:38.781Z,64.86
2023-04-23T12:55:07.735Z,64.59
2023-04-23T12:57:36.227Z,64.50
2023-04-23T13:00:06.096Z,63.19
2023-04-23T13:02:34.686Z,65.61
2023-04-23T13:05:02.988Z,60.91
2023-04-23T13:07:31.436Z,60.70
2023-04-23T13:10:00.998Z,59.67
2023-04-23T13:12:29.238Z,60.69
2023-04-23T13:14:57.587Z,62.17
2023-04-23T13:17:27.027Z,62.76
2023-04-23T13:19:55.847Z,63.54
2023-04-23T13:22:28.465Z,63.24
2023-04-23T13:24:58.035Z,62.82
2023-04-23T13:27:30.981Z,64.28
2023-04-23T13:29:59.584Z,66.04
2023-04-23T13:32:32.216Z,64.52
2023-04-23T13:35:04.089Z,65.25
2023-04-23T13:37:33.747Z,65.13
2023-04-23T13:40:02.400Z,65.12
2023-04-23T13:42:34.409Z,66.53
2023-04-23T13:45:05.297Z,67.89
2023-04-23T13:47:34.973Z,70.68
2023-04-23T13:50:06.862Z,73.54
2023-04-23T13:52:36.137Z,78.75
2023-04-23T13:55:07.895Z,79.66
2023-04-23T13:57:39.674Z,80.94
2023-04-23T14:00:17.555Z,82.40
2023-04-23T14:02:47.681Z,82.45
2023-04-23T14:05:16.151Z,81.82
2023-04-23T14:07:45.047Z,80.57
2023-04-23T14:10:13.403Z,81.92
2023-04-23T14:12:43.053Z,81.48
2023-04-23T14:15:12.021Z,82.89
2023-04-23T14:17:40.861Z,81.84
2023-04-23T14:20:09.888Z,81.73
2023-04-23T14:22:38.183Z,83.85
2023-04-23T14:25:10.868Z,83.17
2023-04-23T14:27:45.809Z,84.07
2023-04-23T14:30:20.024Z,82.50
2023-04-23T14:32:50.415Z,82.36
2023-04-23T14:35:24.500Z,81.45
2023-04-23T14:37:57.619Z,81.11
2023-04-23T14:40:25.892Z,81.70
2023-04-23T14:42:59.390Z,80.34
2023-04-23T14:45:33.714Z,81.25
2023-04-23T14:48:02.274Z,81.93
2023-04-23T14:50:32.462Z,82.52
2023-04-23T14:53:04.473Z,82.52
2023-04-23T14:55:33.905Z,80.62
2023-04-23T14:58:05.101Z,80.13
2023-04-23T15:00:33.589Z,80.99
2023-04-23T15:03:02.773Z,79.44
2023-04-23T15:05:31.882Z,79.30
2023-04-23T15:08:00.047Z,77.08
2023-04-23T15:10:28.276Z,77.88
2023-04-23T15:13:05.266Z,78.65
2023-04-23T15:15:46.036Z,78.39
2023-04-23T15:18:15.767Z,77.52
2023-04-23T15:20:44.906Z,77.18
2023-04-23T15:23:13.119Z,75.83
2023-04-23T15:25:41.763Z,76.57
2023-04-23T15:28:11.204Z,75.91
2023-04-23T15:30:41.042Z,76.21
2023-04-23T15:33:09.902Z,73.67
2023-04-23T15:35:38.374Z,73.14
2023-04-23T15:38:06.912Z,73.55
2023-04-23T15:40:42.079Z,73.81
2023-04-23T15:43:21.532Z,73.82
2023-04-23T15:45:54.769Z,72.03
2023-04-23T15:48:24.246Z,71.53
2023-04-23T15:50:52.825Z,71.10
2023-04-23T15:53:23.398Z,71.09
2023-04-23T15:55:52.311Z,72.61
2023-04-23T15:58:21.300Z,72.21
2023-04-23T16:00:51.145Z,73.10
2023-04-23T16:03:23.260Z,72.45
2023-04-23T16:05:52.435Z,70.71
2023-04-23T16:08:20.810Z,72.87
2023-04-23T16:10:49.240Z,73.77
2023-04-23T16:13:19.076Z,73.59
2023-04-23T16:15:48.123Z,74.69
2023-04-23T16:18:18.553Z,74.15
2023-04-23T16:20:47.152Z,74.62
2023-04-23T16:23:15.709Z,72.92
2023-04-23T16:25:44.384Z,73.62
2023-04-23T16:28:13.883Z,73.64
2023-04-23T16:30:42.220Z,74.98
2023-04-23T16:33:10.629Z,75.06
2023-04-23T16:35:40.924Z,75.82
2023-04-23T16:38:11.409Z,76.44
2023-04-23T16:40:40.669Z,75.54
2023-04-23T16:43:08.783Z,76.13
2023-04-23T16:45:38.345Z,75.59
2023-04-23T16:48:07.687Z,76.03
2023-04-23T16:50:35.761Z,75.21
2023-04-23T16:53:05.804Z,75.11
2023-04-23T16:55:33.972Z,74.51
2023-04-23T16:58:02.424Z,75.27
2023-04-23T17:00:30.821Z,74.54
2023-04-23T17:02:59.649Z,74.52
2023-04-23T17:05:31.152Z,75.61
2023-04-23T17:07:59.619Z,74.82
2023-04-23T17:10:29.345Z,74.16
2023-04-23T17:12:57.646Z,73.64
2023-04-23T17:15:26.044Z,73.14
2023-04-23T17:17:54.284Z,73.08
2023-04-23T17:20:22.832Z,74.63
2023-04-23T17:22:51.582Z,74.37
2023-04-23T17:25:19.717Z,75.02
2023-04-23T17:27:49.430Z,74.46
2023-04-23T17:30:17.657Z,75.98
2023-04-23T17:32:45.815Z,76.73
2023-04-23T17:35:14.319Z,76.94
2023-04-23T17:37:43.006Z,78.00
2023-04-23T17:40:11.992Z,77.79
2023-04-23T17:42:40.109Z,77.52
2023-04-23T17:45:12.897Z,77.68
2023-04-23T17:47:41.655Z,78.23
2023-04-23T17:50:11.761Z,78.44
2023-04-23T17:52:41.184Z,78.77
2023-04-23T17:55:09.830Z,78.50
2023-04-23T17:57:38.008Z,78.03
2023-04-23T18:00:10.050Z,78.35
2023-04-23T18:02:42.627Z,79.58
2023-04-23T18:05:12.044Z,80.30
2023-04-23T18:07:41.878Z,79.21
2023-04-23T18:10:12.427Z,79.02
2023-04-23T18:12:41.104Z,77.18
2023-04-23T18:15:12.396Z,76.90
2023-04-23T18:17:42.432Z,77.66
2023-04-23T18:20:11.210Z,78.01
2023-04-23T18:22:42.175Z,78.30
2023-04-23T18:25:12.931Z,78.96
2023-04-23T18:27:41.786Z,79.25
2023-04-23T18:30:12.121Z,79.03
2023-04-23T18:32:48.643Z,79.53
2023-04-23T18:35:17.017Z,79.53
2023-04-23T18:37:54.627Z,79.89
2023-04-23T18:40:22.856Z,80.40
2023-04-23T18:42:51.763Z,80.50
2023-04-23T18:45:20.167Z,80.67
2023-04-23T18:47:56.971Z,81.24
2023-04-23T18:50:38.071Z,81.40
2023-04-23T18:53:06.587Z,82.07
2023-04-23T18:55:35.039Z,82.41
2023-04-23T18:58:03.617Z,82.87
2023-04-23T19:00:31.961Z,83.10
2023-04-23T19:03:06.497Z,82.81
2023-04-23T19:05:37.771Z,82.97
2023-04-23T19:08:06.386Z,83.76
2023-04-23T19:10:34.561Z,84.01
2023-04-23T19:13:02.753Z,83.70
2023-04-23T19:15:31.285Z,84.17
2023-04-23T19:17:59.548Z,84.80
2023-04-23T19:20:31.195Z,84.50
2023-04-23T19:22:59.462Z,84.92
2023-04-23T19:25:27.487Z,84.96
2023-04-23T19:27:56.139Z,85.27
2023-04-23T19:30:24.461Z,85.62
2023-04-23T19:32:53.424Z,86.54
2023-04-23T19:35:22.154Z,86.71
2023-04-23T19:37:51.622Z,87.70
2023-04-23T19:40:19.758Z,89.06
2023-04-23T19:42:48.688Z,89.68
2023-04-23T19:45:18.466Z,90.23
2023-04-23T19:47:46.744Z,90.18
2023-04-23T19:50:15.457Z,90.19
2023-04-23T19:52:43.612Z,90.37
2023-04-23T19:55:13.322Z,89.75
2023-04-23T19:57:41.618Z,89.68
2023-04-23T20:00:14.168Z,89.33
2023-04-23T20:02:42.832Z,90.65
2023-04-23T20:05:11.571Z,92.30
2023-04-23T20:07:40.390Z,92.03
2023-04-23T20:10:09.436Z,92.43
2023-04-23T20:12:39.804Z,92.56
2023-04-23T20:15:09.388Z,92.36
2023-04-23T20:17:45.169Z,91.98
2023-04-23T20:20:13.522Z,92.08
2023-04-23T20:22:41.821Z,91.45
2023-04-23T20:25:10.563Z,93.59
2023-04-23T20:27:40.120Z,94.61
2023-04-23T20:30:11.864Z,92.39
2023-04-23T20:32:40.260Z,92.18
2023-04-23T20:35:09.503Z,92.11
2023-04-23T20:37:38.067Z,93.43
2023-04-23T20:40:08.191Z,94.10
2023-04-23T20:42:39.185Z,94.33
2023-04-23T20:45:10.823Z,94.34
2023-04-23T20:47:39.060Z,94.59
2023-04-23T20:50:08.395Z,93.30
2023-04-23T20:52:36.589Z,92.46
2023-04-23T20:55:04.923Z,92.93
2023-04-23T20:57:33.486Z,93.11
2023-04-23T21:00:01.682Z,92.44
2023-04-23T21:02:32.295Z,92.41
2023-04-23T21:05:00.861Z,91.87
2023-04-23T21:07:28.947Z,91.88
2023-04-23T21:09:57.445Z,91.20
2023-04-23T21:12:26.419Z,90.94
2023-04-23T21:15:01.606Z,90.26
2023-04-23T21:17:31.286Z,90.79
2023-04-23T21:19:59.448Z,90.30
2023-04-23T21:22:27.600Z,90.54
2023-04-23T21:24:55.684Z,91.11
2023-04-23T21:27:24.039Z,91.31
2023-04-23T21:29:52.596Z,91.21
2023-04-23T21:32:53.534Z,91.42
2023-04-23T21:35:24.418Z,90.94
2023-04-23T21:37:52.523Z,90.48
2023-04-23T21:40:21.181Z,90.40
2023-04-23T21:42:50.094Z,90.28
2023-04-23T21:45:18.579Z,90.62
2023-04-23T21:47:47.270Z,91.28
2023-04-23T21:50:17.504Z,91.05
2023-04-23T21:52:46.271Z,92.37
2023-04-23T21:55:14.457Z,92.77
2023-04-23T21:57:42.622Z,93.81
2023-04-23T22:00:13.995Z,94.14
2023-04-23T22:02:46.363Z,92.81
2023-04-23T22:05:20.116Z,93.00
2023-04-23T22:07:49.394Z,95.35
2023-04-23T22:10:18.586Z,95.59
2023-04-23T22:12:48.567Z,96.03
2023-04-23T22:15:18.838Z,95.90
2023-04-23T22:17:50.437Z,95.48
2023-04-23T22:20:23.702Z,95.71
2023-04-23T22:22:52.302Z,95.82
2023-04-23T22:25:20.665Z,95.49
2023-04-23T22:27:48.894Z,96.26
2023-04-23T22:30:16.966Z,96.85
2023-04-23T22:32:45.392Z,96.01
2023-04-23T22:35:13.747Z,96.09
2023-04-23T22:37:43.660Z,96.81
2023-04-23T22:40:12.305Z,96.64
2023-04-23T22:42:40.451Z,95.92
2023-04-23T22:45:09.453Z,95.29
2023-04-23T22:47:37.746Z,93.57
2023-04-23T22:50:07.847Z,92.80
2023-04-23T22:52:36.131Z,92.40
2023-04-23T22:55:06.241Z,91.84
2023-04-23T22:57:35.387Z,91.13
2023-04-23T23:00:05.220Z,90.74
2023-04-23T23:02:33.600Z,89.95
2023-04-23T23:05:02.171Z,90.07
2023-04-23T23:07:31.473Z,90.35
2023-04-23T23:09:59.764Z,90.91
2023-04-23T23:12:29.390Z,91.17
2023-04-23T23:14:57.707Z,91.25
2023-04-23T23:17:25.792Z,91.14
2023-04-23T23:19:53.862Z,91.12
2023-04-23T23:22:22.155Z,90.65
2023-04-23T23:24:50.314Z,89.80
2023-04-23T23:27:18.388Z,88.95
2023-04-23T23:29:47.812Z,88.64
2023-04-23T23:32:16.090Z,88.75
2023-04-23T23:34:44.304Z,89.32
2023-04-23T23:37:12.430Z,89.88
2023-04-23T23:39:41.299Z,90.81
2023-04-23T23:42:09.750Z,91.59
2023-04-23T23:44:37.796Z,91.95
2023-04-23T23:47:07.591Z,92.70
2023-04-23T23:49:35.910Z,93.42
2023-04-23T23:52:04.311Z,93.48
2023-04-23T23:54:32.344Z,94.04
2023-04-23T23:57:01.531Z,94.21
2023-04-23T23:59:29.607Z,94.30
